createdAt,value
2024-02-16T00:02:55.379Z,99275.31
2024-02-16T00:08:01.026Z,99277.98
2024-02-16T00:13:03.558Z,99281.45
2024-02-16T00:18:09.180Z,99283.09
2024-02-16T00:23:11.846Z,99278.93
2024-02-16T00:28:13.847Z,99276.48
2024-02-16T00:33:15.998Z,99270.05
2024-02-16T00:38:17.994Z,99264.92
2024-02-16T00:43:24.003Z,99256.83
2024-02-16T00:48:26.127Z,99255.45
2024-02-16T00:53:28.448Z,99251.20
2024-02-16T00:58:30.517Z,99250.80
2024-02-16T01:03:32.665Z,99257.20
2024-02-16T01:08:34.919Z,99256.85
2024-02-16T01:13:36.888Z,99261.99
2024-02-16T01:18:39.761Z,99253.42
2024-02-16T01:23:42.027Z,99254.25
2024-02-16T01:28:43.966Z,99253.66
2024-02-16T01:33:46.118Z,99255.27
2024-02-16T01:38:48.512Z,99253.40
2024-02-16T01:43:54.207Z,99248.33
2024-02-16T01:48:56.761Z,99241.97
2024-02-16T01:53:58.992Z,99237.66
2024-02-16T01:59:00.999Z,99233.23
2024-02-16T02:04:03.672Z,99231.00
2024-02-16T02:09:05.711Z,99227.98
2024-02-16T02:14:07.625Z,99226.23
2024-02-16T02:19:09.599Z,99225.11
2024-02-16T02:24:12.251Z,99224.78
2024-02-16T02:29:14.299Z,99221.02
2024-02-16T02:34:16.411Z,99224.48
2024-02-16T02:39:18.268Z,99223.66
2024-02-16T02:44:23.009Z,99222.00
2024-02-16T02:49:25.020Z,99221.30
2024-02-16T02:54:27.060Z,99220.25
2024-02-16T02:59:29.345Z,99216.45
2024-02-16T03:04:31.288Z,99217.45
2024-02-16T03:09:33.293Z,99217.39
2024-02-16T03:14:35.297Z,99214.27
2024-02-16T03:19:37.429Z,99210.33
2024-02-16T03:24:39.733Z,99210.40
2024-02-16T03:29:41.685Z,99212.30
2024-02-16T03:34:43.854Z,99211.55
2024-02-16T03:39:46.111Z,99217.33
2024-02-16T03:44:48.127Z,99215.68
2024-02-16T03:49:50.149Z,99218.39
2024-02-16T03:54:52.904Z,99224.29
2024-02-16T03:59:55.801Z,99221.98
2024-02-16T04:04:57.718Z,99224.33
2024-02-16T04:09:59.963Z,99227.04
2024-02-16T04:15:02.162Z,99221.39
2024-02-16T04:20:04.409Z,99223.02
2024-02-16T04:25:07.308Z,99223.11
2024-02-16T04:30:09.492Z,99223.70
2024-02-16T04:35:13.322Z,99227.13
2024-02-16T04:40:16.677Z,99233.96
2024-02-16T04:45:18.945Z,99233.46
2024-02-16T04:50:20.913Z,99232.56
2024-02-16T04:55:22.865Z,99233.04
2024-02-16T05:00:24.927Z,99225.59
2024-02-16T05:05:26.824Z,99225.57
2024-02-16T05:10:29.536Z,99231.64
2024-02-16T05:15:32.898Z,99222.92
2024-02-16T05:20:34.947Z,99216.61
2024-02-16T05:25:36.875Z,99216.66
2024-02-16T05:30:38.926Z,99219.86
2024-02-16T05:35:41.625Z,99215.94
2024-02-16T06:18:32.992Z,99245.66
2024-02-16T06:23:35.033Z,99247.14
2024-02-16T06:28:36.951Z,99245.55
2024-02-16T06:33:38.963Z,99243.69
2024-02-16T06:38:40.949Z,99247.18
2024-02-16T06:43:43.528Z,99252.48
2024-02-16T06:48:46.539Z,99254.40
2024-02-16T06:53:48.425Z,99256.36
2024-02-16T06:58:50.358Z,99261.10
2024-02-16T07:03:52.493Z,99265.92
2024-02-16T07:08:55.645Z,99269.57
2024-02-16T07:13:57.761Z,99267.17
2024-02-16T07:18:59.931Z,99268.07
2024-02-16T07:24:02.633Z,99269.44
2024-02-16T07:29:04.550Z,99280.66
2024-02-16T07:34:07.342Z,99280.89
2024-02-16T07:39:13.420Z,99276.23
2024-02-16T07:44:16.911Z,99279.23
2024-02-16T07:49:19.035Z,99273.77
2024-02-16T07:54:21.498Z,99273.83
2024-02-16T07:59:25.110Z,99271.83
2024-02-16T08:04:27.004Z,99268.52
2024-02-16T08:09:29.443Z,99264.50
2024-02-16T08:14:33.827Z,99256.95
2024-02-16T08:19:37.713Z,99253.67
2024-02-16T08:24:40.566Z,99253.39
2024-02-16T08:29:45.223Z,99255.10
2024-02-16T08:34:47.290Z,99252.46
2024-02-16T08:39:49.396Z,99255.05
2024-02-16T08:44:51.900Z,99254.55
2024-02-16T08:49:54.167Z,99254.34
2024-02-16T08:54:56.234Z,99253.21
2024-02-16T08:59:58.240Z,99252.39
2024-02-16T09:05:00.475Z,99247.98
2024-02-16T09:10:03.048Z,99247.45
2024-02-16T09:15:07.346Z,99246.37
2024-02-16T09:20:11.685Z,99251.98
2024-02-16T09:25:15.534Z,99252.58
2024-02-16T09:30:18.355Z,99255.84
2024-02-16T09:35:20.654Z,99255.33
2024-02-16T09:40:24.162Z,99257.77
2024-02-16T09:45:28.911Z,99251.88
2024-02-16T09:50:31.629Z,99251.19
2024-02-16T09:55:34.990Z,99252.27
2024-02-16T10:00:37.172Z,99246.31
2024-02-16T10:05:40.006Z,99247.95
2024-02-16T10:10:42.030Z,99246.29
2024-02-16T10:15:43.980Z,99247.05
2024-02-16T10:20:46.843Z,99246.57
2024-02-16T10:25:48.827Z,99242.39
2024-02-16T10:30:51.066Z,99239.98
2024-02-16T10:35:54.330Z,99239.21
2024-02-16T10:40:58.885Z,99233.30
2024-02-16T10:46:01.292Z,99233.98
2024-02-16T10:51:04.041Z,99227.45
2024-02-16T10:56:08.757Z,99224.84
2024-02-16T11:01:31.447Z,99222.89
2024-02-16T11:06:34.155Z,99222.79
2024-02-16T11:11:37.570Z,99213.96
2024-02-16T11:16:46.738Z,99202.54
2024-02-16T11:22:01.195Z,99198.45
2024-02-16T11:27:06.915Z,99196.05
2024-02-16T11:32:09.295Z,99197.06
2024-02-16T11:37:18.542Z,99187.96
2024-02-16T11:42:21.320Z,99185.30
2024-02-16T11:47:30.430Z,99186.17
2024-02-16T11:52:36.329Z,99185.66
2024-02-16T11:57:40.209Z,99180.65
2024-02-16T12:02:42.223Z,99180.42
2024-02-16T12:07:45.904Z,99179.98
2024-02-16T12:12:49.517Z,99179.69
2024-02-16T12:18:02.653Z,99177.77
2024-02-16T12:23:14.366Z,99175.88
2024-02-16T12:28:16.485Z,99173.33
2024-02-16T12:33:18.877Z,99167.23
2024-02-16T12:38:21.611Z,99157.02
2024-02-16T12:43:23.419Z,99147.83
2024-02-16T12:48:25.448Z,99149.77
2024-02-16T12:53:29.650Z,99147.64
2024-02-16T12:58:31.758Z,99147.08
2024-02-16T13:03:37.627Z,99140.43
2024-02-16T13:08:39.873Z,99132.23
2024-02-16T13:13:41.663Z,99132.77
2024-02-16T13:18:43.802Z,99124.34
2024-02-16T13:29:05.739Z,99115.01
2024-02-16T13:34:07.794Z,99106.95
2024-02-16T13:39:09.653Z,99107.40
2024-02-16T14:10:53.350Z,99100.54
2024-02-16T14:15:55.419Z,99095.38
2024-02-16T14:20:57.686Z,99099.52
2024-02-16T14:26:00.556Z,99095.70
2024-02-16T14:31:04.180Z,99096.41
2024-02-16T14:36:06.750Z,99096.02
2024-02-16T14:41:09.492Z,99091.11
2024-02-16T14:46:11.445Z,99088.73
2024-02-16T14:51:13.415Z,99090.83
2024-02-16T14:56:15.765Z,99087.69
2024-02-16T15:01:18.060Z,99090.20
2024-02-16T15:06:19.992Z,99095.11
2024-02-16T15:11:21.970Z,99090.66
2024-02-16T15:16:23.882Z,99090.20
2024-02-16T15:21:25.855Z,99087.31
2024-02-16T15:26:27.854Z,99083.58
2024-02-16T15:31:29.797Z,99079.37
2024-02-16T15:36:31.730Z,99077.77
2024-02-16T15:41:34.006Z,99079.46
2024-02-16T15:46:35.999Z,99077.38
2024-02-16T15:51:38.158Z,99076.85
2024-02-16T15:56:40.280Z,99079.77
2024-02-16T16:01:42.308Z,99081.09
2024-02-16T16:06:45.806Z,99079.77
2024-02-16T16:11:48.056Z,99077.64
2024-02-16T16:16:55.042Z,99079.19
2024-02-16T16:21:57.551Z,99085.67
2024-02-16T16:26:59.465Z,99088.34
2024-02-16T16:37:06.396Z,99090.35
2024-02-16T16:42:09.385Z,99098.22
2024-02-16T16:47:13.756Z,99106.63
2024-02-16T16:52:15.734Z,99109.89
2024-02-16T16:57:20.318Z,99111.70
2024-02-16T17:02:22.606Z,99119.12
2024-02-16T17:07:24.710Z,99123.82
2024-02-16T17:12:27.489Z,99127.77
2024-02-16T17:17:31.791Z,99126.88
2024-02-16T17:22:33.976Z,99136.36
2024-02-16T17:27:37.620Z,99139.22
2024-02-16T17:32:43.215Z,99138.30
2024-02-16T17:37:46.876Z,99136.10
2024-02-16T17:42:51.915Z,99139.23
2024-02-16T17:47:55.364Z,99141.55
2024-02-16T17:52:57.259Z,99143.42
2024-02-16T17:58:00.366Z,99144.98
2024-02-16T18:03:03.768Z,99143.17
2024-02-16T18:08:06.254Z,99147.68
2024-02-16T18:13:08.193Z,99152.05
2024-02-16T18:18:10.218Z,99151.45
2024-02-16T18:23:12.425Z,99156.30
2024-02-16T18:28:16.726Z,99161.70
2024-02-16T18:33:24.133Z,99163.05
2024-02-16T18:38:26.644Z,99166.77
2024-02-16T18:43:28.471Z,99163.40
2024-02-16T18:48:30.653Z,99161.20
2024-02-16T18:53:32.732Z,99158.52
2024-02-16T18:58:34.867Z,99161.27
2024-02-16T19:03:37.994Z,99160.62
2024-02-16T19:08:39.918Z,99155.73
2024-02-16T19:13:42.039Z,99151.55
2024-02-16T19:18:45.936Z,99149.20
2024-02-16T19:23:47.974Z,99150.75
2024-02-16T19:28:50.304Z,99150.30
2024-02-16T19:33:52.267Z,99156.30
2024-02-16T19:38:56.856Z,99154.93
2024-02-16T19:43:58.808Z,99153.78
2024-02-16T19:49:00.790Z,99158.19
2024-02-16T19:54:04.699Z,99160.20
2024-02-16T19:59:06.758Z,99165.14
2024-02-16T20:04:09.134Z,99168.54
2024-02-16T20:09:12.644Z,99169.63
2024-02-16T20:14:14.716Z,99170.66
2024-02-16T20:19:17.076Z,99171.02
2024-02-16T20:24:20.889Z,99168.48
2024-02-16T20:29:24.151Z,99163.73
2024-02-16T20:34:26.368Z,99158.76
2024-02-16T20:39:28.512Z,99158.33
2024-02-16T20:44:30.500Z,99160.44
2024-02-16T20:49:32.383Z,99163.41
2024-02-16T20:54:35.774Z,99161.42
2024-02-16T20:59:37.888Z,99154.25
2024-02-16T21:04:41.128Z,99160.34
2024-02-16T21:09:43.340Z,99151.90
2024-02-16T21:14:45.660Z,99156.63
2024-02-16T21:19:48.209Z,99153.45
2024-02-16T21:24:51.559Z,99157.49
2024-02-16T21:29:53.507Z,99157.65
2024-02-16T21:34:55.986Z,99158.80
2024-02-16T21:39:58.540Z,99163.13
2024-02-16T21:45:00.524Z,99161.11
2024-02-16T21:50:03.264Z,99163.21
2024-02-16T21:55:05.752Z,99159.48
2024-02-16T22:00:08.262Z,99163.15
2024-02-16T22:05:10.426Z,99162.89
2024-02-16T22:10:12.628Z,99161.57
2024-02-16T22:15:14.847Z,99163.92
2024-02-16T22:20:16.722Z,99158.23
2024-02-16T22:25:19.530Z,99166.46
2024-02-16T22:30:21.547Z,99169.06
2024-02-16T22:35:24.037Z,99176.55
2024-02-16T22:40:26.085Z,99184.46
2024-02-16T22:45:28.042Z,99177.41
2024-02-16T22:50:30.033Z,99177.47
2024-02-16T22:55:32.245Z,99184.22
2024-02-16T23:00:34.693Z,99187.89
2024-02-16T23:05:38.523Z,99175.06
2024-02-16T23:10:42.808Z,99178.72
2024-02-16T23:15:44.848Z,99177.86
2024-02-16T23:20:47.443Z,99183.42
2024-02-16T23:25:50.448Z,99185.66
2024-02-16T23:30:52.465Z,99188.61
2024-02-16T23:35:54.450Z,99189.20
2024-02-16T23:40:57.808Z,99196.08
2024-02-16T23:46:02.566Z,99198.55
2024-02-16T23:51:04.740Z,99202.91
2024-02-16T23:56:07.034Z,99202.14
